Decoded Metar for LROD (ORADEA in ROMANIA) (IATA:OMR) | Meteo·Mobile Aviation Weather
aviador You're here:

LROD Decoded Metar

ORADEA in ROMANIA
Report Time2018-12-10 11:00:00
UTC Time2018-12-10 11:28:23
Flight Rules mvfr MVFR
Wind300° at 05 kt
W.Decomp.*RWY 01: 1.4 kt HW 4.8 kt LCW
W.Rank300° ranks 36
Current wind is below 300° avg. (5.8)
Visibility9999 m
Phenomena:N/A
Clouds:Few 015 Hf
Broken 018 Hf
Overcast 026 Hf
Expected CloudBase > 1,200 ft AGL from Temp-Dew spread
Ceiling1,800 ft
Temp07°C (ISA -7)
Dew Point04°C (81% RH)
AAT3.9°C
QNH1007 hPa
Density Alt-75 ft
Elevation459 ft
Report Wrong Elevation
Raw Report
METAR LROD 101100Z 30005KT 9999 FEW015 BKN018 OVC026 07/04 Q1007 R01/19//95=

Extra information for LROD:More info

Metar Taf Metar & Taf Last 4 Metars F.Rules Stats Wind Profile Meteogram Temp Stats Airport Information Weather charts Add Link Nearby VenuesMetar ALERT Operation Metar Decoded Social comments